createdAt,value
2023-05-10T00:00:49.039Z,14.60
2023-05-10T00:03:15.789Z,14.50
2023-05-10T00:05:42.566Z,14.40
2023-05-10T00:08:09.389Z,14.40
2023-05-10T00:10:36.203Z,14.40
2023-05-10T00:13:02.880Z,14.30
2023-05-10T00:15:31.418Z,14.30
2023-05-10T00:17:58.057Z,14.30
2023-05-10T00:20:24.696Z,14.30
2023-05-10T00:22:51.395Z,14.30
2023-05-10T00:25:18.028Z,14.30
2023-05-10T00:27:44.680Z,14.30
2023-05-10T00:30:11.388Z,14.20
2023-05-10T00:32:38.076Z,14.20
2023-05-10T00:35:04.864Z,14.30
2023-05-10T00:37:31.494Z,14.30
2023-05-10T00:39:58.130Z,14.40
2023-05-10T00:42:24.843Z,14.40
2023-05-10T00:44:51.838Z,14.40
2023-05-10T00:47:18.598Z,14.50
2023-05-10T00:49:45.782Z,14.50
2023-05-10T00:52:12.431Z,14.50
2023-05-10T00:54:39.266Z,14.50
2023-05-10T00:57:05.960Z,14.50
2023-05-10T00:59:33.200Z,14.50
2023-05-10T01:01:59.834Z,14.40
2023-05-10T01:04:26.761Z,14.40
2023-05-10T01:06:54.652Z,14.40
2023-05-10T01:09:22.400Z,14.40
2023-05-10T01:11:49.655Z,14.40
2023-05-10T01:14:18.478Z,14.40
2023-05-10T01:16:45.467Z,14.40
2023-05-10T01:19:20.749Z,14.40
2023-05-10T01:21:53.972Z,14.40
2023-05-10T01:24:29.551Z,14.40
2023-05-10T01:27:15.002Z,14.40
2023-05-10T01:30:22.065Z,14.40
2023-05-10T01:36:26.976Z,14.50
2023-05-10T01:39:13.519Z,14.50
2023-05-10T01:41:50.509Z,14.40
2023-05-10T01:44:37.159Z,14.40
2023-05-10T01:47:33.235Z,14.50
2023-05-10T01:50:02.512Z,14.50
2023-05-10T01:52:34.352Z,14.50
2023-05-10T01:55:06.323Z,14.50
2023-05-10T01:57:50.184Z,14.50
2023-05-10T02:00:17.405Z,14.40
2023-05-10T02:02:48.645Z,14.40
2023-05-10T02:05:16.368Z,14.40
2023-05-10T02:07:43.515Z,14.40
2023-05-10T02:10:11.092Z,14.40
2023-05-10T02:12:40.302Z,14.40
2023-05-10T02:15:08.091Z,14.40
2023-05-10T02:17:36.407Z,14.30
2023-05-10T02:20:04.903Z,14.30
2023-05-10T02:22:32.441Z,14.30
2023-05-10T02:24:59.546Z,14.40
2023-05-10T02:27:28.240Z,14.30
2023-05-10T02:29:55.298Z,14.30
2023-05-10T02:32:22.743Z,14.30
2023-05-10T02:34:52.779Z,14.20
2023-05-10T02:37:22.980Z,14.30
2023-05-10T02:39:54.795Z,14.30
2023-05-10T02:42:24.679Z,14.30
2023-05-10T02:44:52.001Z,14.30
2023-05-10T02:47:19.266Z,14.30
2023-05-10T02:49:46.312Z,14.30
2023-05-10T02:52:17.210Z,14.30
2023-05-10T02:54:49.959Z,14.30
2023-05-10T02:57:20.247Z,14.30
2023-05-10T02:59:47.113Z,14.30
2023-05-10T03:02:13.812Z,14.30
2023-05-10T03:04:40.450Z,14.30
2023-05-10T03:07:07.666Z,14.20
2023-05-10T03:09:34.511Z,14.20
2023-05-10T03:12:11.422Z,14.20
2023-05-10T03:14:56.794Z,14.20
2023-05-10T03:17:23.481Z,14.20
2023-05-10T03:19:57.319Z,14.10
2023-05-10T03:22:41.949Z,14.10
2023-05-10T03:25:09.839Z,14.20
2023-05-10T03:27:37.717Z,14.20
2023-05-10T03:30:06.063Z,14.20
2023-05-10T03:32:35.343Z,14.30
2023-05-10T03:35:03.257Z,14.30
2023-05-10T03:37:29.907Z,14.20
2023-05-10T03:39:56.575Z,14.20
2023-05-10T03:42:23.166Z,14.20
2023-05-10T03:44:50.868Z,14.20
2023-05-10T03:47:17.704Z,14.20
2023-05-10T03:49:44.355Z,14.20
2023-05-10T03:52:10.997Z,14.20
2023-05-10T03:54:37.627Z,14.20
2023-05-10T03:57:04.817Z,14.10
2023-05-10T03:59:31.475Z,14.10
2023-05-10T04:01:58.195Z,14.10
2023-05-10T04:04:24.919Z,14.10
2023-05-10T04:06:51.583Z,14.20
2023-05-10T04:09:18.264Z,14.10
2023-05-10T04:11:44.954Z,14.20
2023-05-10T04:14:11.610Z,14.20
2023-05-10T04:16:38.326Z,14.20
2023-05-10T04:19:05.079Z,14.20
2023-05-10T04:21:31.859Z,14.30
2023-05-10T04:23:58.443Z,14.30
2023-05-10T04:26:26.602Z,14.30
2023-05-10T04:28:53.220Z,14.30
2023-05-10T04:31:19.974Z,14.30
2023-05-10T04:33:46.786Z,14.30
2023-05-10T04:36:13.452Z,14.30
2023-05-10T04:38:40.122Z,14.40
2023-05-10T04:41:08.311Z,14.40
2023-05-10T04:43:34.963Z,14.40
2023-05-10T04:46:01.718Z,14.40
2023-05-10T04:48:28.386Z,14.40
2023-05-10T04:50:55.157Z,14.50
2023-05-10T04:53:22.055Z,14.50
2023-05-10T04:55:49.014Z,14.50
2023-05-10T04:58:15.920Z,14.50
2023-05-10T05:00:43.241Z,14.50
2023-05-10T05:03:10.727Z,14.60
2023-05-10T05:05:37.418Z,14.60
2023-05-10T05:08:04.200Z,14.60
2023-05-10T05:10:30.974Z,14.60
2023-05-10T05:12:57.705Z,14.60
2023-05-10T05:15:24.448Z,14.50
2023-05-10T05:17:51.265Z,14.50
2023-05-10T05:20:18.315Z,14.40
2023-05-10T05:22:45.414Z,14.40
2023-05-10T05:25:12.777Z,14.40
2023-05-10T05:27:39.439Z,14.50
2023-05-10T05:30:06.436Z,14.50
2023-05-10T05:32:33.148Z,14.60
2023-05-10T05:34:59.865Z,14.60
2023-05-10T05:37:26.516Z,14.60
2023-05-10T05:39:53.161Z,14.70
2023-05-10T05:42:19.945Z,14.80
2023-05-10T05:44:46.693Z,14.90
2023-05-10T05:47:13.376Z,14.90
2023-05-10T05:49:40.603Z,14.90
2023-05-10T05:52:07.316Z,14.90
2023-05-10T05:54:34.071Z,14.90
2023-05-10T05:57:01.614Z,14.90
2023-05-10T05:59:28.445Z,14.90
2023-05-10T06:01:55.496Z,14.90
2023-05-10T06:04:22.217Z,15.00
2023-05-10T06:06:48.918Z,15.00
2023-05-10T06:09:15.955Z,15.00
2023-05-10T06:11:42.599Z,15.00
2023-05-10T06:14:09.289Z,15.00
2023-05-10T06:16:36.242Z,15.00
2023-05-10T06:19:03.323Z,15.10
2023-05-10T06:21:29.966Z,15.10
2023-05-10T06:23:56.843Z,15.20
2023-05-10T06:26:23.899Z,15.20
2023-05-10T06:28:50.585Z,15.20
2023-05-10T06:31:17.329Z,15.30
2023-05-10T06:33:43.997Z,15.40
2023-05-10T06:36:10.660Z,15.50
2023-05-10T06:38:37.310Z,15.60
2023-05-10T06:41:04.103Z,15.60
2023-05-10T06:43:30.852Z,15.60
2023-05-10T06:45:57.636Z,15.70
2023-05-10T06:48:24.366Z,15.70
2023-05-10T06:50:51.041Z,15.70
2023-05-10T06:53:17.807Z,15.70
2023-05-10T06:55:44.542Z,15.80
2023-05-10T06:58:11.396Z,15.80
2023-05-10T07:00:41.434Z,15.80
2023-05-10T07:03:08.323Z,15.90
2023-05-10T07:05:35.685Z,15.90
2023-05-10T07:08:02.815Z,15.90
2023-05-10T07:10:29.526Z,15.80
2023-05-10T07:12:56.310Z,15.70
2023-05-10T07:15:23.070Z,15.60
2023-05-10T07:17:49.849Z,15.60
2023-05-10T07:20:16.620Z,15.70
2023-05-10T07:22:43.310Z,15.70
2023-05-10T07:25:10.069Z,15.70
2023-05-10T07:27:36.867Z,15.70
2023-05-10T07:30:03.645Z,15.60
2023-05-10T07:32:30.367Z,15.60
2023-05-10T07:34:57.054Z,15.60
2023-05-10T07:37:23.730Z,15.60
2023-05-10T07:39:50.365Z,15.60
2023-05-10T07:42:16.974Z,15.70
2023-05-10T07:44:44.292Z,15.70
2023-05-10T07:47:10.910Z,15.70
2023-05-10T07:49:37.626Z,15.70
2023-05-10T07:52:04.526Z,15.70
2023-05-10T07:54:31.321Z,15.70
2023-05-10T07:56:58.018Z,15.70
2023-05-10T07:59:24.611Z,15.60
2023-05-10T08:01:51.233Z,15.60
2023-05-10T08:04:17.877Z,15.60
2023-05-10T08:06:44.584Z,15.50
2023-05-10T08:09:11.887Z,15.40
2023-05-10T08:11:38.633Z,15.30
2023-05-10T08:14:05.395Z,15.30
2023-05-10T08:16:33.432Z,15.30
2023-05-10T08:19:00.264Z,15.40
2023-05-10T08:21:27.266Z,15.40
2023-05-10T08:23:53.957Z,15.50
2023-05-10T08:26:22.444Z,15.50
2023-05-10T08:28:49.078Z,15.50
2023-05-10T08:31:16.554Z,15.50
2023-05-10T08:33:44.652Z,15.50
2023-05-10T08:36:11.621Z,15.40
2023-05-10T08:38:38.824Z,15.40
2023-05-10T08:41:06.370Z,15.30
2023-05-10T08:43:33.232Z,15.50
2023-05-10T08:46:04.239Z,15.60
2023-05-10T08:48:32.018Z,15.50
2023-05-10T08:51:00.138Z,15.50
2023-05-10T08:53:28.225Z,15.60
2023-05-10T08:55:55.014Z,15.60
2023-05-10T08:58:21.793Z,15.60
2023-05-10T09:00:50.022Z,15.50
2023-05-10T09:03:17.957Z,15.60
2023-05-10T09:05:45.731Z,15.60
2023-05-10T09:08:12.995Z,15.60
2023-05-10T09:10:40.600Z,15.70
2023-05-10T09:13:08.116Z,15.70
2023-05-10T09:15:34.775Z,15.50
2023-05-10T09:18:03.406Z,15.60
2023-05-10T09:20:30.186Z,15.60
2023-05-10T09:22:56.859Z,15.70
2023-05-10T09:25:23.696Z,15.60
2023-05-10T09:27:50.655Z,15.70
2023-05-10T09:30:18.983Z,15.80
2023-05-10T09:32:46.582Z,15.90
2023-05-10T09:35:14.674Z,15.90
2023-05-10T09:37:44.836Z,16.00
2023-05-10T09:40:18.824Z,16.10
2023-05-10T09:43:18.058Z,16.30
2023-05-10T09:45:44.784Z,16.40
2023-05-10T09:48:11.469Z,16.40
2023-05-10T09:50:38.132Z,16.40
2023-05-10T09:53:04.960Z,16.30
2023-05-10T09:55:42.280Z,16.20
2023-05-10T09:58:11.833Z,16.20
2023-05-10T10:00:42.431Z,16.20
2023-05-10T10:03:16.290Z,16.20
2023-05-10T10:05:44.529Z,16.10
2023-05-10T10:08:12.057Z,16.00
2023-05-10T10:10:41.105Z,16.00
2023-05-10T10:13:07.822Z,16.00
2023-05-10T10:15:35.898Z,16.00
2023-05-10T10:18:04.549Z,16.00
2023-05-10T10:20:31.268Z,16.10
2023-05-10T10:22:57.988Z,16.20
2023-05-10T10:25:26.038Z,16.40
2023-05-10T10:27:52.620Z,16.40
2023-05-10T10:30:19.272Z,16.30
2023-05-10T10:32:45.911Z,16.20
2023-05-10T10:35:12.759Z,16.20
2023-05-10T10:37:45.276Z,16.10
2023-05-10T10:40:23.696Z,16.10
2023-05-10T10:42:54.483Z,16.00
2023-05-10T10:45:22.221Z,16.20
2023-05-10T10:47:49.230Z,16.40
2023-05-10T10:50:17.241Z,16.50
2023-05-10T10:52:44.643Z,16.60
2023-05-10T10:55:15.674Z,16.70
2023-05-10T10:57:42.555Z,16.80
2023-05-10T11:00:22.728Z,16.80
2023-05-10T11:02:50.903Z,16.90
2023-05-10T11:05:24.582Z,17.10
2023-05-10T11:07:58.105Z,17.30
2023-05-10T11:10:25.874Z,17.40
2023-05-10T11:13:02.422Z,17.60
2023-05-10T11:15:36.280Z,17.70
2023-05-10T11:18:18.625Z,17.70
2023-05-10T11:20:50.729Z,17.80
2023-05-10T11:23:18.876Z,18.00
2023-05-10T11:25:46.479Z,18.20
2023-05-10T11:28:13.813Z,18.30
2023-05-10T11:30:41.093Z,18.30
2023-05-10T11:33:08.412Z,18.00
2023-05-10T11:35:41.025Z,17.90
2023-05-10T11:38:09.600Z,18.10
2023-05-10T11:40:36.934Z,18.40
2023-05-10T11:43:03.768Z,18.60
2023-05-10T11:45:32.826Z,18.70
2023-05-10T11:48:00.001Z,18.70
2023-05-10T11:50:29.782Z,18.40
2023-05-10T11:52:56.984Z,18.20
2023-05-10T11:55:25.133Z,18.20
2023-05-10T11:57:55.078Z,18.40
2023-05-10T12:00:22.145Z,18.70
2023-05-10T12:02:49.775Z,18.80
2023-05-10T12:05:16.545Z,18.90
2023-05-10T12:07:43.343Z,19.00
2023-05-10T12:10:18.793Z,19.20
2023-05-10T12:12:46.886Z,19.20
2023-05-10T12:15:20.889Z,19.30
2023-05-10T12:17:48.058Z,19.40
2023-05-10T12:20:18.949Z,19.50
2023-05-10T12:23:00.729Z,19.60
2023-05-10T12:25:31.075Z,19.60
2023-05-10T12:27:58.722Z,19.50
2023-05-10T12:30:26.103Z,19.50
2023-05-10T12:32:53.538Z,19.00
2023-05-10T12:35:24.962Z,18.90
2023-05-10T12:37:51.781Z,18.90
2023-05-10T12:40:18.568Z,18.60
2023-05-10T12:42:45.952Z,18.50
2023-05-10T12:45:12.704Z,18.60
2023-05-10T12:47:41.410Z,18.60
2023-05-10T12:50:10.051Z,18.70
2023-05-10T12:52:37.145Z,18.70
2023-05-10T12:55:04.204Z,18.70
2023-05-10T12:57:30.962Z,18.50
2023-05-10T12:59:57.759Z,18.40
2023-05-10T13:02:24.613Z,18.40
2023-05-10T13:04:51.943Z,18.40
2023-05-10T13:07:18.849Z,18.30
2023-05-10T13:09:45.592Z,18.30
2023-05-10T13:12:12.238Z,18.30
2023-05-10T13:14:39.000Z,18.20
2023-05-10T13:17:05.948Z,18.20
2023-05-10T13:19:32.617Z,18.10
2023-05-10T13:21:59.465Z,18.10
2023-05-10T13:24:26.392Z,18.20
2023-05-10T13:26:53.022Z,18.20
2023-05-10T13:29:20.151Z,18.20
2023-05-10T13:31:46.995Z,18.20
2023-05-10T13:34:13.711Z,18.20
2023-05-10T13:36:40.441Z,18.20
2023-05-10T13:39:07.088Z,18.20
2023-05-10T13:41:34.098Z,18.00
2023-05-10T13:44:00.867Z,17.70
2023-05-10T13:46:27.565Z,17.50
2023-05-10T13:48:54.253Z,17.30
2023-05-10T13:51:21.316Z,17.10
2023-05-10T13:53:48.179Z,17.00
2023-05-10T13:56:15.247Z,16.90
2023-05-10T13:58:42.302Z,16.80
2023-05-10T14:01:09.005Z,16.00
2023-05-10T14:03:35.770Z,15.20
2023-05-10T14:06:02.538Z,14.70
2023-05-10T14:08:29.268Z,14.50
2023-05-10T14:10:57.388Z,14.30
2023-05-10T14:13:25.076Z,14.10
2023-05-10T14:15:52.430Z,14.10
2023-05-10T14:18:19.572Z,14.10
2023-05-10T14:20:46.734Z,14.00
2023-05-10T14:23:13.858Z,14.00
2023-05-10T14:25:43.932Z,14.00
2023-05-10T14:28:10.633Z,14.00
2023-05-10T14:30:37.555Z,14.10
2023-05-10T14:33:04.489Z,14.00
2023-05-10T14:35:32.185Z,14.00
2023-05-10T14:37:59.686Z,14.00
2023-05-10T14:40:26.993Z,14.00
2023-05-10T14:42:54.051Z,14.00
2023-05-10T14:45:21.465Z,13.90
2023-05-10T14:47:48.190Z,14.00
2023-05-10T14:50:28.223Z,14.00
2023-05-10T14:53:01.843Z,14.00
2023-05-10T14:55:28.472Z,14.00
2023-05-10T14:57:55.415Z,14.00
2023-05-10T15:00:22.558Z,14.10
2023-05-10T15:02:49.711Z,14.10
2023-05-10T15:05:17.418Z,14.20
2023-05-10T15:07:44.835Z,14.30
2023-05-10T15:10:12.301Z,14.40
2023-05-10T15:12:39.215Z,14.40
2023-05-10T15:15:06.430Z,14.60
2023-05-10T15:17:33.444Z,14.60
2023-05-10T15:20:00.309Z,14.60
2023-05-10T15:22:29.188Z,14.50
2023-05-10T15:24:55.874Z,14.50
2023-05-10T15:27:22.464Z,14.40
2023-05-10T15:29:49.096Z,14.30
2023-05-10T15:32:15.689Z,14.20
2023-05-10T15:34:42.328Z,14.00
2023-05-10T15:37:09.009Z,14.00
2023-05-10T15:39:35.659Z,14.00
2023-05-10T15:42:02.558Z,14.10
2023-05-10T15:44:29.339Z,14.20
2023-05-10T15:46:55.986Z,14.30
2023-05-10T15:49:22.663Z,14.20
2023-05-10T15:51:49.433Z,14.20
2023-05-10T15:54:16.072Z,14.30
2023-05-10T15:56:42.707Z,14.20
2023-05-10T15:59:10.727Z,14.20
2023-05-10T16:01:37.483Z,14.10
2023-05-10T16:04:04.610Z,14.10
2023-05-10T16:06:33.027Z,14.10
2023-05-10T16:09:01.191Z,14.10
2023-05-10T16:11:27.846Z,14.10
2023-05-10T16:13:55.007Z,14.10
2023-05-10T16:16:22.465Z,14.10
2023-05-10T16:18:49.614Z,14.10
2023-05-10T16:21:16.809Z,14.10
2023-05-10T16:23:46.651Z,14.20
2023-05-10T16:26:13.783Z,14.10
2023-05-10T16:28:41.574Z,14.20
2023-05-10T16:31:08.658Z,14.10
2023-05-10T16:33:35.881Z,14.10
2023-05-10T16:36:03.161Z,14.10
2023-05-10T16:38:30.469Z,14.10
2023-05-10T16:40:57.633Z,14.20
2023-05-10T16:43:26.081Z,14.20
2023-05-10T16:45:53.344Z,14.20
2023-05-10T16:48:20.210Z,14.10
2023-05-10T16:50:48.127Z,14.00
2023-05-10T16:53:15.287Z,14.00
2023-05-10T16:55:42.568Z,14.00
2023-05-10T16:58:09.691Z,14.00
2023-05-10T17:00:36.690Z,14.00
2023-05-10T17:03:04.822Z,14.10
2023-05-10T17:05:32.034Z,14.10
2023-05-10T17:07:59.029Z,14.00
2023-05-10T17:10:26.407Z,13.90
2023-05-10T17:12:56.185Z,13.80
2023-05-10T17:15:24.479Z,13.80
2023-05-10T17:17:51.958Z,13.80
2023-05-10T17:20:19.119Z,13.70
2023-05-10T17:22:50.213Z,13.70
2023-05-10T17:25:19.066Z,13.70
2023-05-10T17:27:46.665Z,13.70
2023-05-10T17:30:18.667Z,13.70
2023-05-10T17:32:51.379Z,13.70
2023-05-10T17:35:23.197Z,13.60
2023-05-10T17:37:50.077Z,13.60
2023-05-10T17:40:17.090Z,13.60
2023-05-10T17:42:43.819Z,13.60
2023-05-10T17:45:10.714Z,13.60
2023-05-10T17:47:37.786Z,13.60
2023-05-10T17:50:05.141Z,13.50
2023-05-10T17:52:33.564Z,13.50
2023-05-10T17:55:00.422Z,13.50
2023-05-10T17:57:27.050Z,13.40
2023-05-10T17:59:53.690Z,13.50
2023-05-10T18:02:20.360Z,13.40
2023-05-10T18:04:49.375Z,13.40
2023-05-10T18:07:16.518Z,13.30
2023-05-10T18:09:43.207Z,13.30
2023-05-10T18:12:09.944Z,13.20
2023-05-10T18:14:41.083Z,13.10
2023-05-10T18:17:09.054Z,13.10
2023-05-10T18:19:46.035Z,13.00
2023-05-10T18:22:17.531Z,13.10
2023-05-10T18:24:47.807Z,13.00
2023-05-10T18:27:17.924Z,12.90
2023-05-10T18:29:48.811Z,12.90
2023-05-10T18:32:20.483Z,12.80
2023-05-10T18:34:55.869Z,12.80
2023-05-10T18:37:23.449Z,12.80
2023-05-10T18:39:56.261Z,12.80
2023-05-10T18:42:29.559Z,12.80
2023-05-10T18:45:00.176Z,12.80
2023-05-10T18:47:28.005Z,12.80
2023-05-10T18:49:56.539Z,12.70
2023-05-10T18:52:26.976Z,12.70
2023-05-10T18:55:00.259Z,12.70
2023-05-10T18:57:39.964Z,12.70
2023-05-10T19:00:15.358Z,12.70
2023-05-10T19:02:43.110Z,12.60
2023-05-10T19:05:25.372Z,12.70
2023-05-10T19:07:59.823Z,12.60
2023-05-10T19:10:31.328Z,12.50
2023-05-10T19:13:01.782Z,12.50
2023-05-10T19:15:35.276Z,12.50
2023-05-10T19:18:03.534Z,12.50
2023-05-10T19:20:37.204Z,12.50
2023-05-10T19:25:35.705Z,12.50
2023-05-10T19:28:02.623Z,12.50
2023-05-10T19:30:29.732Z,12.40
2023-05-10T19:32:56.411Z,12.30
2023-05-10T19:35:23.463Z,12.40
2023-05-10T19:37:50.880Z,12.40
2023-05-10T19:40:18.500Z,12.30
2023-05-10T19:42:45.232Z,12.30
2023-05-10T19:45:12.327Z,12.30
2023-05-10T19:47:39.119Z,12.30
2023-05-10T19:50:07.128Z,12.20
2023-05-10T19:52:33.830Z,12.10
2023-05-10T19:55:00.467Z,12.10
2023-05-10T19:57:27.503Z,12.10
2023-05-10T19:59:54.152Z,12.10
2023-05-10T20:02:20.961Z,12.10
2023-05-10T20:04:47.630Z,12.10
2023-05-10T20:07:15.229Z,12.00
2023-05-10T20:09:42.619Z,12.10
2023-05-10T20:12:09.283Z,12.00
2023-05-10T20:14:35.957Z,12.00
2023-05-10T20:17:02.616Z,12.00
2023-05-10T20:19:29.402Z,11.90
2023-05-10T20:21:57.697Z,11.90
2023-05-10T20:24:25.146Z,11.90
2023-05-10T20:26:51.772Z,11.90
2023-05-10T20:29:18.383Z,11.90
2023-05-10T20:31:45.024Z,11.90
2023-05-10T20:34:11.670Z,11.90
2023-05-10T20:36:38.264Z,11.90
2023-05-10T20:39:05.104Z,11.90
2023-05-10T20:41:31.735Z,11.80
2023-05-10T20:43:58.372Z,11.80
2023-05-10T20:46:26.965Z,11.70
2023-05-10T20:48:54.045Z,11.70
2023-05-10T20:51:20.724Z,11.70
2023-05-10T20:53:47.394Z,11.60
2023-05-10T20:56:14.025Z,11.60
2023-05-10T20:58:40.972Z,11.60
2023-05-10T21:01:07.701Z,11.50
2023-05-10T21:03:34.380Z,11.50
2023-05-10T21:06:01.061Z,11.50
2023-05-10T21:08:27.729Z,11.50
2023-05-10T21:10:54.574Z,11.50
2023-05-10T21:13:21.233Z,11.50
2023-05-10T21:15:47.846Z,11.50
2023-05-10T21:18:14.550Z,11.50
2023-05-10T21:20:41.205Z,11.50
2023-05-10T21:23:07.828Z,11.60
2023-05-10T21:25:35.583Z,11.60
2023-05-10T21:28:02.167Z,11.50
2023-05-10T21:30:28.832Z,11.50
2023-05-10T21:32:59.502Z,11.60
2023-05-10T21:35:26.627Z,11.60
2023-05-10T21:37:53.336Z,11.60
2023-05-10T21:40:20.331Z,11.60
2023-05-10T21:42:49.377Z,11.60
2023-05-10T21:45:17.108Z,11.60
2023-05-10T21:47:44.136Z,11.70
2023-05-10T21:50:11.447Z,11.70
2023-05-10T21:52:38.741Z,11.70
2023-05-10T21:55:05.643Z,11.80
2023-05-10T21:57:32.542Z,11.70
2023-05-10T21:59:59.143Z,11.80
2023-05-10T22:02:25.979Z,11.80
2023-05-10T22:04:52.907Z,11.80
2023-05-10T22:07:19.512Z,11.80
2023-05-10T22:09:46.171Z,11.80
2023-05-10T22:12:13.018Z,11.80
2023-05-10T22:14:39.645Z,11.90
2023-05-10T22:17:06.349Z,11.90
2023-05-10T22:19:33.064Z,11.90
2023-05-10T22:21:59.695Z,11.80
2023-05-10T22:24:26.352Z,11.90
2023-05-10T22:26:56.474Z,11.90
2023-05-10T22:29:23.473Z,11.80
2023-05-10T22:31:50.108Z,11.90
2023-05-10T22:34:16.819Z,11.80
2023-05-10T22:36:44.634Z,11.90
2023-05-10T22:39:11.701Z,11.90
2023-05-10T22:41:38.367Z,11.90
2023-05-10T22:44:05.072Z,11.80
2023-05-10T22:46:32.302Z,11.80
2023-05-10T22:48:59.340Z,11.80
2023-05-10T22:51:26.301Z,11.70
2023-05-10T22:53:52.923Z,11.80
2023-05-10T22:56:19.784Z,11.70
2023-05-10T22:58:46.379Z,11.50
2023-05-10T23:01:13.500Z,11.60
2023-05-10T23:03:40.272Z,11.60
2023-05-10T23:06:07.097Z,11.60
2023-05-10T23:08:33.732Z,11.60
2023-05-10T23:11:00.661Z,11.70
2023-05-10T23:13:27.540Z,11.60
2023-05-10T23:15:54.150Z,11.60
2023-05-10T23:18:20.854Z,11.50
2023-05-10T23:20:47.505Z,11.50
2023-05-10T23:23:14.177Z,11.50
2023-05-10T23:25:40.761Z,11.50
2023-05-10T23:28:07.496Z,11.40
2023-05-10T23:30:34.134Z,11.40
2023-05-10T23:33:01.113Z,11.40
2023-05-10T23:35:27.767Z,11.30
2023-05-10T23:37:54.654Z,11.30
2023-05-10T23:40:21.470Z,11.30
2023-05-10T23:42:48.133Z,11.30
2023-05-10T23:45:14.995Z,11.30
2023-05-10T23:47:41.960Z,11.30
2023-05-10T23:50:08.929Z,11.30
2023-05-10T23:52:35.653Z,11.20
2023-05-10T23:55:02.389Z,11.20
2023-05-10T23:57:29.296Z,11.20
2023-05-10T23:59:56.098Z,11.10
